PWSweather.com
Personal Weather Stations
Station Observations
KCOBLACK1
Chalet Park, Black Hawk, CO 80422

Chalet ParkBlack Hawk, CO 80422

Lat: 39.8294, Lon: -105.48

Elevation: 9370

Station Type: Vantage Pro2

http://www.oscaranddeb.com/weather

Latest ConditionsUpdated 4:10:15 PM MDT Friday, May 29, 2015
Currently Today's Max Today's Min Today's Average
Temperature 49.8°F9.9°C 53.3°F11.8°C 34.7°F1.5°C 41.6°F5.3°C
Dew Point 38.9°F3.8°C 39.3°F4.1°C 25.8°F-3.4°C 29.0°F-1.7°C
Winds Calm Calm 16.0 mph N25.7 kmh N - 4.6 mph 7.4 kmh
Wind Gusts 16.0 mph25.7 kmh 24.0 mph38.6 kmh - -
Humidity 66% 78% 35% 62%
Pressure 30.03 in1016.9 mb 30.03 in1016.9 mb 29.89 in1012.2 mb -
Hour Temp Dew Point Humidity Winds Wind Gusts Pressure Precip Precip Rate Daily Precip Total
04:10 PM 49.8°F9.9°C 38.9°F3.8°C 66% Calm Calm 16.0 mph25.7 kmh 30.03 in1016.9 mb 0.00 in0.0 mm 0.00 in0.0 mm 0.00 in0.0 mm
04:05 PM 50.6°F10.3°C 38.8°F3.8°C 64% 1.0 mph ENE1.6 kmh ENE 16.0 mph25.7 kmh 30.03 in1016.9 mb 0.00 in0.0 mm 0.00 in0.0 mm 0.00 in0.0 mm
04:00 PM 52.1°F11.2°C 39.0°F3.9°C 61% 7.0 mph E11.3 kmh E 14.0 mph22.5 kmh 30.03 in1016.9 mb 0.00 in0.0 mm 0.00 in0.0 mm 0.00 in0.0 mm
03:55 PM 53.2°F11.8°C 38.8°F3.8°C 58% 11.0 mph E17.7 kmh E 13.0 mph20.9 kmh 30.03 in1016.9 mb 0.00 in0.0 mm 0.00 in0.0 mm 0.00 in0.0 mm
03:50 PM 53.3°F11.8°C 39.3°F4.1°C 59% Calm Calm 8.0 mph12.9 kmh 30.03 in1016.9 mb 0.00 in0.0 mm 0.00 in0.0 mm 0.00 in0.0 mm
03:45 PM 52.9°F11.6°C 38.0°F3.3°C 57% Calm Calm 6.0 mph9.7 kmh 30.03 in1016.9 mb 0.00 in0.0 mm 0.00 in0.0 mm 0.00 in0.0 mm
03:40 PM 52.6°F11.4°C 38.2°F3.4°C 58% 1.0 mph NE1.6 kmh NE 4.0 mph6.4 kmh 30.03 in1016.9 mb 0.00 in0.0 mm 0.00 in0.0 mm 0.00 in0.0 mm
03:35 PM 51.4°F10.8°C 33.3°F0.7°C 50% 1.0 mph NE1.6 kmh NE 8.0 mph12.9 kmh 30.03 in1016.9 mb 0.00 in0.0 mm 0.00 in0.0 mm 0.00 in0.0 mm
03:30 PM 51.4°F10.8°C 26.6°F-3.0°C 38% 5.0 mph NW8.0 kmh NW 15.0 mph24.1 kmh 30.03 in1016.9 mb 0.00 in0.0 mm 0.00 in0.0 mm 0.00 in0.0 mm
03:25 PM 52.7°F11.5°C 25.8°F-3.4°C 35% 5.0 mph SW8.0 kmh SW 12.0 mph19.3 kmh 30.02 in1016.6 mb 0.00 in0.0 mm 0.00 in0.0 mm 0.00 in0.0 mm
03:20 PM 52.3°F11.3°C 29.3°F-1.5°C 41% 4.0 mph WSW6.4 kmh WSW 9.0 mph14.5 kmh 30.02 in1016.6 mb 0.00 in0.0 mm 0.00 in0.0 mm 0.00 in0.0 mm
03:15 PM 51.0°F10.6°C 28.1°F-2.2°C 41% 7.0 mph SW11.3 kmh SW 12.0 mph19.3 kmh 30.02 in1016.6 mb 0.00 in0.0 mm 0.00 in0.0 mm 0.00 in0.0 mm
03:10 PM 51.6°F10.9°C 27.4°F-2.6°C 39% 12.0 mph SW19.3 kmh SW 16.0 mph25.7 kmh 30.02 in1016.6 mb 0.00 in0.0 mm 0.00 in0.0 mm 0.00 in0.0 mm
03:05 PM 51.4°F10.8°C 27.8°F-2.3°C 40% 6.0 mph WSW9.7 kmh WSW 12.0 mph19.3 kmh 30.02 in1016.6 mb 0.00 in0.0 mm 0.00 in0.0 mm 0.00 in0.0 mm
03:00 PM 51.3°F10.7°C 28.4°F-2.0°C 41% 4.0 mph W6.4 kmh W 18.0 mph29.0 kmh 30.03 in1016.9 mb 0.00 in0.0 mm 0.00 in0.0 mm 0.00 in0.0 mm
02:55 PM 50.7°F10.4°C 27.2°F-2.7°C 40% 11.0 mph W17.7 kmh W 14.0 mph22.5 kmh 30.03 in1016.9 mb 0.00 in0.0 mm 0.00 in0.0 mm 0.00 in0.0 mm
02:50 PM 50.8°F10.4°C 27.3°F-2.6°C 40% 7.0 mph WSW11.3 kmh WSW 13.0 mph20.9 kmh 30.03 in1016.9 mb 0.00 in0.0 mm 0.00 in0.0 mm 0.00 in0.0 mm
02:45 PM 50.2°F10.1°C 28.0°F-2.2°C 42% 9.0 mph SW14.5 kmh SW 21.0 mph33.8 kmh 30.03 in1016.9 mb 0.00 in0.0 mm 0.00 in0.0 mm 0.00 in0.0 mm
02:40 PM 49.9°F9.9°C 25.9°F-3.4°C 39% 3.0 mph WSW4.8 kmh WSW 16.0 mph25.7 kmh 30.03 in1016.9 mb 0.00 in0.0 mm 0.00 in0.0 mm 0.00 in0.0 mm
02:35 PM 50.4°F10.2°C 28.1°F-2.2°C 42% 12.0 mph WNW19.3 kmh WNW 13.0 mph20.9 kmh 30.03 in1016.9 mb 0.00 in0.0 mm 0.00 in0.0 mm 0.00 in0.0 mm
02:30 PM 49.8°F9.9°C 27.6°F-2.4°C 42% 10.0 mph WSW16.1 kmh WSW 21.0 mph33.8 kmh 30.02 in1016.6 mb 0.00 in0.0 mm 0.00 in0.0 mm 0.00 in0.0 mm
02:25 PM 49.9°F9.9°C 29.9°F-1.2°C 46% 14.0 mph SW22.5 kmh SW 16.0 mph25.7 kmh 30.03 in1016.9 mb 0.00 in0.0 mm 0.00 in0.0 mm 0.00 in0.0 mm
02:20 PM 49.0°F9.4°C 29.1°F-1.6°C 46% 1.0 mph W1.6 kmh W 13.0 mph20.9 kmh 30.03 in1016.9 mb 0.00 in0.0 mm 0.00 in0.0 mm 0.00 in0.0 mm
02:15 PM 49.4°F9.7°C 28.9°F-1.7°C 45% 3.0 mph WSW4.8 kmh WSW 18.0 mph29.0 kmh 30.03 in1016.9 mb 0.00 in0.0 mm 0.00 in0.0 mm 0.00 in0.0 mm
02:10 PM 49.1°F9.5°C 29.7°F-1.3°C 47% 6.0 mph WSW9.7 kmh WSW 15.0 mph24.1 kmh 30.03 in1016.9 mb 0.00 in0.0 mm 0.00 in0.0 mm 0.00 in0.0 mm
02:05 PM 49.8°F9.9°C 30.3°F-0.9°C 47% 10.0 mph WSW16.1 kmh WSW 14.0 mph22.5 kmh 30.03 in1016.9 mb 0.00 in0.0 mm 0.00 in0.0 mm 0.00 in0.0 mm
02:00 PM 50.1°F10.1°C 29.5°F-1.4°C 45% 5.0 mph WSW8.0 kmh WSW 12.0 mph19.3 kmh 30.03 in1016.9 mb 0.00 in0.0 mm 0.00 in0.0 mm 0.00 in0.0 mm
01:55 PM 48.4°F9.1°C 29.1°F-1.6°C 47% 2.0 mph WSW3.2 kmh WSW 12.0 mph19.3 kmh 30.03 in1016.9 mb 0.00 in0.0 mm 0.00 in0.0 mm 0.00 in0.0 mm
01:50 PM 47.6°F8.7°C 30.3°F-0.9°C 51% 4.0 mph WNW6.4 kmh WNW 13.0 mph20.9 kmh 30.03 in1016.9 mb 0.00 in0.0 mm 0.00 in0.0 mm 0.00 in0.0 mm
01:45 PM 47.2°F8.4°C 29.0°F-1.7°C 49% 7.0 mph W11.3 kmh W 13.0 mph20.9 kmh 30.03 in1016.9 mb 0.00 in0.0 mm 0.00 in0.0 mm 0.00 in0.0 mm
01:40 PM 47.1°F8.4°C 28.4°F-2.0°C 48% 4.0 mph WNW6.4 kmh WNW 10.0 mph16.1 kmh 30.03 in1016.9 mb 0.00 in0.0 mm 0.00 in0.0 mm 0.00 in0.0 mm
01:35 PM 47.0°F8.3°C 28.8°F-1.8°C 49% 3.0 mph NW4.8 kmh NW 10.0 mph16.1 kmh 30.03 in1016.9 mb 0.00 in0.0 mm 0.00 in0.0 mm 0.00 in0.0 mm
01:30 PM 47.2°F8.4°C 28.5°F-1.9°C 48% 8.0 mph N12.9 kmh N 10.0 mph16.1 kmh 30.03 in1016.9 mb 0.00 in0.0 mm 0.00 in0.0 mm 0.00 in0.0 mm
01:25 PM 47.0°F8.3°C 28.3°F-2.1°C 48% 8.0 mph NW12.9 kmh NW 10.0 mph16.1 kmh 30.03 in1016.9 mb 0.00 in0.0 mm 0.00 in0.0 mm 0.00 in0.0 mm
01:20 PM 46.9°F8.3°C 28.7°F-1.8°C 49% Calm Calm 12.0 mph19.3 kmh 30.03 in1016.9 mb 0.00 in0.0 mm 0.00 in0.0 mm 0.00 in0.0 mm
01:15 PM 46.5°F8.1°C 27.3°F-2.6°C 47% 11.0 mph N17.7 kmh N 15.0 mph24.1 kmh 30.03 in1016.9 mb 0.00 in0.0 mm 0.00 in0.0 mm 0.00 in0.0 mm
01:10 PM 46.3°F7.9°C 27.6°F-2.4°C 48% 8.0 mph N12.9 kmh N 16.0 mph25.7 kmh 30.03 in1016.9 mb 0.00 in0.0 mm 0.00 in0.0 mm 0.00 in0.0 mm
01:05 PM 46.1°F7.8°C 26.4°F-3.1°C 46% 10.0 mph N16.1 kmh N 15.0 mph24.1 kmh 30.03 in1016.9 mb 0.00 in0.0 mm 0.00 in0.0 mm 0.00 in0.0 mm
01:00 PM 46.0°F7.8°C 27.4°F-2.6°C 48% 6.0 mph N9.7 kmh N 12.0 mph19.3 kmh 30.03 in1016.9 mb 0.00 in0.0 mm 0.00 in0.0 mm 0.00 in0.0 mm
12:55 PM 46.1°F7.8°C 27.5°F-2.5°C 48% 5.0 mph NNW8.0 kmh NNW 10.0 mph16.1 kmh 30.03 in1016.9 mb 0.00 in0.0 mm 0.00 in0.0 mm 0.00 in0.0 mm
12:50 PM 45.6°F7.6°C 27.5°F-2.5°C 49% 5.0 mph WNW8.0 kmh WNW 16.0 mph25.7 kmh 30.03 in1016.9 mb 0.00 in0.0 mm 0.00 in0.0 mm 0.00 in0.0 mm
12:45 PM 46.4°F8.0°C 27.2°F-2.7°C 47% 12.0 mph NW19.3 kmh NW 19.0 mph30.6 kmh 30.03 in1016.9 mb 0.00 in0.0 mm 0.00 in0.0 mm 0.00 in0.0 mm
12:40 PM 47.1°F8.4°C 27.9°F-2.3°C 47% 11.0 mph NW17.7 kmh NW 20.0 mph32.2 kmh 30.03 in1016.9 mb 0.00 in0.0 mm 0.00 in0.0 mm 0.00 in0.0 mm
12:35 PM 46.8°F8.2°C 28.1°F-2.2°C 48% 6.0 mph SW9.7 kmh SW 12.0 mph19.3 kmh 30.02 in1016.6 mb 0.00 in0.0 mm 0.00 in0.0 mm 0.00 in0.0 mm
12:30 PM 46.1°F7.8°C 28.0°F-2.2°C 49% 8.0 mph NW12.9 kmh NW 14.0 mph22.5 kmh 30.02 in1016.6 mb 0.00 in0.0 mm 0.00 in0.0 mm 0.00 in0.0 mm
12:25 PM 45.4°F7.4°C 26.8°F-2.9°C 48% Calm Calm 24.0 mph38.6 kmh 30.02 in1016.6 mb 0.00 in0.0 mm 0.00 in0.0 mm 0.00 in0.0 mm
12:20 PM 45.4°F7.4°C 26.3°F-3.2°C 47% 12.0 mph NNE19.3 kmh NNE 24.0 mph38.6 kmh 30.02 in1016.6 mb 0.00 in0.0 mm 0.00 in0.0 mm 0.00 in0.0 mm
12:15 PM 45.4°F7.4°C 26.3°F-3.2°C 47% 9.0 mph NW14.5 kmh NW 13.0 mph20.9 kmh 30.02 in1016.6 mb 0.00 in0.0 mm 0.00 in0.0 mm 0.00 in0.0 mm
12:10 PM 45.7°F7.6°C 27.1°F-2.7°C 48% 7.0 mph W11.3 kmh W 14.0 mph22.5 kmh 30.02 in1016.6 mb 0.00 in0.0 mm 0.00 in0.0 mm 0.00 in0.0 mm
12:05 PM 46.1°F7.8°C 27.5°F-2.5°C 48% 4.0 mph WNW6.4 kmh WNW 14.0 mph22.5 kmh 30.01 in1016.3 mb 0.00 in0.0 mm 0.00 in0.0 mm 0.00 in0.0 mm
12:00 PM 46.1°F7.8°C 27.0°F-2.8°C 47% 3.0 mph NNW4.8 kmh NNW 15.0 mph24.1 kmh 30.01 in1016.3 mb 0.00 in0.0 mm 0.00 in0.0 mm 0.00 in0.0 mm
11:55 AM 45.1°F7.3°C 28.0°F-2.2°C 51% 3.0 mph W4.8 kmh W 14.0 mph22.5 kmh 30.01 in1016.3 mb 0.00 in0.0 mm 0.00 in0.0 mm 0.00 in0.0 mm
11:50 AM 44.7°F7.1°C 27.2°F-2.7°C 50% 14.0 mph WNW22.5 kmh WNW 13.0 mph20.9 kmh 30.01 in1016.3 mb 0.00 in0.0 mm 0.00 in0.0 mm 0.00 in0.0 mm
11:45 AM 44.4°F6.9°C 27.8°F-2.3°C 52% 7.0 mph WSW11.3 kmh WSW 15.0 mph24.1 kmh 30.01 in1016.3 mb 0.00 in0.0 mm 0.00 in0.0 mm 0.00 in0.0 mm
11:40 AM 44.9°F7.2°C 27.3°F-2.6°C 50% 4.0 mph NNW6.4 kmh NNW 11.0 mph17.7 kmh 30.01 in1016.3 mb 0.00 in0.0 mm 0.00 in0.0 mm 0.00 in0.0 mm
11:35 AM 45.4°F7.4°C 26.8°F-2.9°C 48% 9.0 mph NW14.5 kmh NW 16.0 mph25.7 kmh 30.01 in1016.3 mb 0.00 in0.0 mm 0.00 in0.0 mm 0.00 in0.0 mm
11:30 AM 46.1°F7.8°C 26.4°F-3.1°C 46% 5.0 mph SW8.0 kmh SW 13.0 mph20.9 kmh 30.00 in1015.9 mb 0.00 in0.0 mm 0.00 in0.0 mm 0.00 in0.0 mm
11:25 AM 45.7°F7.6°C 28.1°F-2.2°C 50% 2.0 mph WSW3.2 kmh WSW 8.0 mph12.9 kmh 30.01 in1016.3 mb 0.00 in0.0 mm 0.00 in0.0 mm 0.00 in0.0 mm
11:20 AM 44.5°F6.9°C 26.5°F-3.1°C 49% 6.0 mph WSW9.7 kmh WSW 13.0 mph20.9 kmh 30.01 in1016.3 mb 0.00 in0.0 mm 0.00 in0.0 mm 0.00 in0.0 mm
11:15 AM 43.8°F6.6°C 27.3°F-2.6°C 52% 9.0 mph NW14.5 kmh NW 16.0 mph25.7 kmh 30.01 in1016.3 mb 0.00 in0.0 mm 0.00 in0.0 mm 0.00 in0.0 mm
11:10 AM 43.2°F6.2°C 25.8°F-3.4°C 50% 1.0 mph NW1.6 kmh NW 15.0 mph24.1 kmh 30.01 in1016.3 mb 0.00 in0.0 mm 0.00 in0.0 mm 0.00 in0.0 mm
11:05 AM 42.8°F6.0°C 27.3°F-2.6°C 54% 2.0 mph WSW3.2 kmh WSW 10.0 mph16.1 kmh 30.01 in1016.3 mb 0.00 in0.0 mm 0.00 in0.0 mm 0.00 in0.0 mm
11:00 AM 42.7°F5.9°C 27.2°F-2.7°C 54% 8.0 mph W12.9 kmh W 12.0 mph19.3 kmh 30.01 in1016.3 mb 0.00 in0.0 mm 0.00 in0.0 mm 0.00 in0.0 mm
10:55 AM 42.6°F5.9°C 27.5°F-2.5°C 55% 3.0 mph WSW4.8 kmh WSW 15.0 mph24.1 kmh 30.01 in1016.3 mb 0.00 in0.0 mm 0.00 in0.0 mm 0.00 in0.0 mm
10:50 AM 42.7°F5.9°C 27.6°F-2.4°C 55% 3.0 mph W4.8 kmh W 14.0 mph22.5 kmh 30.01 in1016.3 mb 0.00 in0.0 mm 0.00 in0.0 mm 0.00 in0.0 mm
10:45 AM 43.2°F6.2°C 28.5°F-1.9°C 56% 13.0 mph WSW20.9 kmh WSW 15.0 mph24.1 kmh 30.01 in1016.3 mb 0.00 in0.0 mm 0.00 in0.0 mm 0.00 in0.0 mm
10:40 AM 43.2°F6.2°C 27.2°F-2.7°C 53% 6.0 mph NW9.7 kmh NW 14.0 mph22.5 kmh 30.00 in1015.9 mb 0.00 in0.0 mm 0.00 in0.0 mm 0.00 in0.0 mm
10:35 AM 42.9°F6.1°C 26.9°F-2.8°C 53% 8.0 mph NW12.9 kmh NW 15.0 mph24.1 kmh 30.00 in1015.9 mb 0.00 in0.0 mm 0.00 in0.0 mm 0.00 in0.0 mm
10:30 AM 42.9°F6.1°C 28.2°F-2.1°C 56% 6.0 mph NW9.7 kmh NW 15.0 mph24.1 kmh 30.00 in1015.9 mb 0.00 in0.0 mm 0.00 in0.0 mm 0.00 in0.0 mm
10:25 AM 42.5°F5.8°C 28.7°F-1.8°C 58% 7.0 mph W11.3 kmh W 11.0 mph17.7 kmh 30.00 in1015.9 mb 0.00 in0.0 mm 0.00 in0.0 mm 0.00 in0.0 mm
10:20 AM 42.7°F5.9°C 29.3°F-1.5°C 59% 7.0 mph W11.3 kmh W 12.0 mph19.3 kmh 30.00 in1015.9 mb 0.00 in0.0 mm 0.00 in0.0 mm 0.00 in0.0 mm
10:15 AM 43.0°F6.1°C 30.0°F-1.1°C 60% 1.0 mph NW1.6 kmh NW 11.0 mph17.7 kmh 30.00 in1015.9 mb 0.00 in0.0 mm 0.00 in0.0 mm 0.00 in0.0 mm
10:10 AM 43.2°F6.2°C 29.8°F-1.2°C 59% 7.0 mph WSW11.3 kmh WSW 17.0 mph27.4 kmh 30.00 in1015.9 mb 0.00 in0.0 mm 0.00 in0.0 mm 0.00 in0.0 mm
10:05 AM 43.4°F6.3°C 29.1°F-1.6°C 57% 4.0 mph WSW6.4 kmh WSW 15.0 mph24.1 kmh 30.00 in1015.9 mb 0.00 in0.0 mm 0.00 in0.0 mm 0.00 in0.0 mm
10:00 AM 43.7°F6.5°C 29.4°F-1.4°C 57% 5.0 mph NW8.0 kmh NW 12.0 mph19.3 kmh 29.99 in1015.6 mb 0.00 in0.0 mm 0.00 in0.0 mm 0.00 in0.0 mm
09:55 AM 43.8°F6.6°C 27.7°F-2.4°C 53% 4.0 mph WNW6.4 kmh WNW 14.0 mph22.5 kmh 29.99 in1015.6 mb 0.00 in0.0 mm 0.00 in0.0 mm 0.00 in0.0 mm
09:50 AM 43.8°F6.6°C 28.2°F-2.1°C 54% 6.0 mph NW9.7 kmh NW 12.0 mph19.3 kmh 29.99 in1015.6 mb 0.00 in0.0 mm 0.00 in0.0 mm 0.00 in0.0 mm
09:45 AM 43.2°F6.2°C 29.4°F-1.4°C 58% 2.0 mph W3.2 kmh W 14.0 mph22.5 kmh 29.99 in1015.6 mb 0.00 in0.0 mm 0.00 in0.0 mm 0.00 in0.0 mm
09:40 AM 42.4°F5.8°C 28.2°F-2.1°C 57% 13.0 mph N20.9 kmh N 17.0 mph27.4 kmh 29.99 in1015.6 mb 0.00 in0.0 mm 0.00 in0.0 mm 0.00 in0.0 mm
09:35 AM 42.5°F5.8°C 28.3°F-2.1°C 57% 7.0 mph NW11.3 kmh NW 12.0 mph19.3 kmh 29.99 in1015.6 mb 0.00 in0.0 mm 0.00 in0.0 mm 0.00 in0.0 mm
09:30 AM 42.9°F6.1°C 28.7°F-1.8°C 57% 8.0 mph WNW12.9 kmh WNW 14.0 mph22.5 kmh 29.99 in1015.6 mb 0.00 in0.0 mm 0.00 in0.0 mm 0.00 in0.0 mm
09:25 AM 42.9°F6.1°C 29.1°F-1.6°C 58% 7.0 mph W11.3 kmh W 15.0 mph24.1 kmh 29.99 in1015.6 mb 0.00 in0.0 mm 0.00 in0.0 mm 0.00 in0.0 mm
09:20 AM 43.3°F6.3°C 28.2°F-2.1°C 55% 5.0 mph NW8.0 kmh NW 15.0 mph24.1 kmh 30.00 in1015.9 mb 0.00 in0.0 mm 0.00 in0.0 mm 0.00 in0.0 mm
09:15 AM 43.1°F6.2°C 28.9°F-1.7°C 57% 12.0 mph WNW19.3 kmh WNW 16.0 mph25.7 kmh 29.99 in1015.6 mb 0.00 in0.0 mm 0.00 in0.0 mm 0.00 in0.0 mm
09:10 AM 42.7°F5.9°C 29.3°F-1.5°C 59% 16.0 mph N25.7 kmh N 16.0 mph25.7 kmh 29.99 in1015.6 mb 0.00 in0.0 mm 0.00 in0.0 mm 0.00 in0.0 mm
09:05 AM 42.0°F5.6°C 29.9°F-1.2°C 62% Calm Calm 12.0 mph19.3 kmh 29.99 in1015.6 mb 0.00 in0.0 mm 0.00 in0.0 mm 0.00 in0.0 mm
09:00 AM 41.3°F5.2°C 28.8°F-1.8°C 61% 3.0 mph W4.8 kmh W 13.0 mph20.9 kmh 29.99 in1015.6 mb 0.00 in0.0 mm 0.00 in0.0 mm 0.00 in0.0 mm
08:55 AM 40.6°F4.8°C 29.3°F-1.5°C 64% 6.0 mph W9.7 kmh W 21.0 mph33.8 kmh 29.99 in1015.6 mb 0.00 in0.0 mm 0.00 in0.0 mm 0.00 in0.0 mm
08:50 AM 40.4°F4.7°C 28.8°F-1.8°C 63% 8.0 mph N12.9 kmh N 21.0 mph33.8 kmh 29.99 in1015.6 mb 0.00 in0.0 mm 0.00 in0.0 mm 0.00 in0.0 mm
08:45 AM 40.4°F4.7°C 29.1°F-1.6°C 64% 3.0 mph SW4.8 kmh SW 12.0 mph19.3 kmh 29.98 in1015.2 mb 0.00 in0.0 mm 0.00 in0.0 mm 0.00 in0.0 mm
08:40 AM 40.0°F4.4°C 28.8°F-1.8°C 64% 1.0 mph WSW1.6 kmh WSW 8.0 mph12.9 kmh 29.98 in1015.2 mb 0.00 in0.0 mm 0.00 in0.0 mm 0.00 in0.0 mm
08:35 AM 39.8°F4.3°C 28.6°F-1.9°C 64% 7.0 mph WSW11.3 kmh WSW 13.0 mph20.9 kmh 29.98 in1015.2 mb 0.00 in0.0 mm 0.00 in0.0 mm 0.00 in0.0 mm
08:30 AM 39.6°F4.2°C 28.8°F-1.8°C 65% Calm Calm 10.0 mph16.1 kmh 29.97 in1014.9 mb 0.00 in0.0 mm 0.00 in0.0 mm 0.00 in0.0 mm
08:25 AM 39.2°F4.0°C 29.5°F-1.4°C 68% Calm Calm 9.0 mph14.5 kmh 29.97 in1014.9 mb 0.00 in0.0 mm 0.00 in0.0 mm 0.00 in0.0 mm
08:20 AM 39.3°F4.1°C 29.2°F-1.6°C 67% 2.0 mph W3.2 kmh W 12.0 mph19.3 kmh 29.97 in1014.9 mb 0.00 in0.0 mm 0.00 in0.0 mm 0.00 in0.0 mm
08:15 AM 39.5°F4.2°C 29.8°F-1.2°C 68% 10.0 mph W16.1 kmh W 13.0 mph20.9 kmh 29.97 in1014.9 mb 0.00 in0.0 mm 0.00 in0.0 mm 0.00 in0.0 mm
08:10 AM 39.6°F4.2°C 29.5°F-1.4°C 67% 13.0 mph NW20.9 kmh NW 17.0 mph27.4 kmh 29.96 in1014.6 mb 0.00 in0.0 mm 0.00 in0.0 mm 0.00 in0.0 mm
08:05 AM 39.4°F4.1°C 29.7°F-1.3°C 68% 5.0 mph NW8.0 kmh NW 12.0 mph19.3 kmh 29.97 in1014.9 mb 0.00 in0.0 mm 0.00 in0.0 mm 0.00 in0.0 mm
07:55 AM 39.0°F3.9°C 28.9°F-1.7°C 67% 7.0 mph W11.3 kmh W 16.0 mph25.7 kmh 29.96 in1014.6 mb 0.00 in0.0 mm 0.00 in0.0 mm 0.00 in0.0 mm
07:50 AM 38.9°F3.8°C 29.2°F-1.6°C 68% 7.0 mph SW11.3 kmh SW 14.0 mph22.5 kmh 29.96 in1014.6 mb 0.00 in0.0 mm 0.00 in0.0 mm 0.00 in0.0 mm
07:45 AM 38.8°F3.8°C 28.7°F-1.8°C 67% 5.0 mph WSW8.0 kmh WSW 15.0 mph24.1 kmh 29.96 in1014.6 mb 0.00 in0.0 mm 0.00 in0.0 mm 0.00 in0.0 mm
07:40 AM 38.8°F3.8°C 28.7°F-1.8°C 67% 4.0 mph W6.4 kmh W 14.0 mph22.5 kmh 29.96 in1014.6 mb 0.00 in0.0 mm 0.00 in0.0 mm 0.00 in0.0 mm
07:35 AM 38.6°F3.7°C 28.9°F-1.7°C 68% 6.0 mph SW9.7 kmh SW 16.0 mph25.7 kmh 29.96 in1014.6 mb 0.00 in0.0 mm 0.00 in0.0 mm 0.00 in0.0 mm
07:30 AM 38.3°F3.5°C 29.3°F-1.5°C 70% 4.0 mph W6.4 kmh W 9.0 mph14.5 kmh 29.96 in1014.6 mb 0.00 in0.0 mm 0.00 in0.0 mm 0.00 in0.0 mm
07:26 AM 38.1°F3.4°C 29.1°F-1.6°C 70% Calm Calm 10.0 mph16.1 kmh 29.96 in1014.6 mb 0.00 in0.0 mm 0.00 in0.0 mm 0.00 in0.0 mm
07:20 AM 38.0°F3.3°C 29.1°F-1.6°C 70% 3.0 mph WSW4.8 kmh WSW 14.0 mph22.5 kmh 29.96 in1014.6 mb 0.00 in0.0 mm 0.00 in0.0 mm 0.00 in0.0 mm
07:15 AM 37.9°F3.3°C 29.0°F-1.7°C 70% 3.0 mph NW4.8 kmh NW 16.0 mph25.7 kmh 29.96 in1014.6 mb 0.00 in0.0 mm 0.00 in0.0 mm 0.00 in0.0 mm
07:10 AM 37.9°F3.3°C 28.6°F-1.9°C 69% 2.0 mph W3.2 kmh W 8.0 mph12.9 kmh 29.95 in1014.2 mb 0.00 in0.0 mm 0.00 in0.0 mm 0.00 in0.0 mm
07:05 AM 37.9°F3.3°C 28.6°F-1.9°C 69% 2.0 mph SW3.2 kmh SW 12.0 mph19.3 kmh 29.94 in1013.9 mb 0.00 in0.0 mm 0.00 in0.0 mm 0.00 in0.0 mm
07:00 AM 38.0°F3.3°C 28.7°F-1.8°C 69% 1.0 mph W1.6 kmh W 16.0 mph25.7 kmh 29.94 in1013.9 mb 0.00 in0.0 mm 0.00 in0.0 mm 0.00 in0.0 mm
06:55 AM 38.0°F3.3°C 28.7°F-1.8°C 69% 9.0 mph WNW14.5 kmh WNW 16.0 mph25.7 kmh 29.94 in1013.9 mb 0.00 in0.0 mm 0.00 in0.0 mm 0.00 in0.0 mm
06:50 AM 37.7°F3.2°C 28.4°F-2.0°C 69% 11.0 mph W17.7 kmh W 11.0 mph17.7 kmh 29.94 in1013.9 mb 0.00 in0.0 mm 0.00 in0.0 mm 0.00 in0.0 mm
06:45 AM 37.3°F2.9°C 28.7°F-1.8°C 71% 3.0 mph WNW4.8 kmh WNW 10.0 mph16.1 kmh 29.95 in1014.2 mb 0.00 in0.0 mm 0.00 in0.0 mm 0.00 in0.0 mm
06:40 AM 36.8°F2.7°C 28.6°F-1.9°C 72% 4.0 mph WNW6.4 kmh WNW 10.0 mph16.1 kmh 29.95 in1014.2 mb 0.00 in0.0 mm 0.00 in0.0 mm 0.00 in0.0 mm
06:35 AM 36.2°F2.3°C 28.3°F-2.1°C 73% 2.0 mph NNW3.2 kmh NNW 8.0 mph12.9 kmh 29.95 in1014.2 mb 0.00 in0.0 mm 0.00 in0.0 mm 0.00 in0.0 mm
06:30 AM 35.6°F2.0°C 28.1°F-2.2°C 74% 2.0 mph N3.2 kmh N 4.0 mph6.4 kmh 29.94 in1013.9 mb 0.00 in0.0 mm 0.00 in0.0 mm 0.00 in0.0 mm
06:25 AM 35.4°F1.9°C 27.9°F-2.3°C 74% 1.0 mph NE1.6 kmh NE 9.0 mph14.5 kmh 29.94 in1013.9 mb 0.00 in0.0 mm 0.00 in0.0 mm 0.00 in0.0 mm
06:20 AM 35.3°F1.8°C 28.1°F-2.2°C 75% 3.0 mph SE4.8 kmh SE 9.0 mph14.5 kmh 29.95 in1014.2 mb 0.00 in0.0 mm 0.00 in0.0 mm 0.00 in0.0 mm
06:15 AM 35.5°F1.9°C 28.3°F-2.1°C 75% Calm Calm 5.0 mph8.0 kmh 29.94 in1013.9 mb 0.00 in0.0 mm 0.00 in0.0 mm 0.00 in0.0 mm
06:10 AM 35.6°F2.0°C 28.4°F-2.0°C 75% Calm Calm 6.0 mph9.7 kmh 29.93 in1013.5 mb 0.00 in0.0 mm 0.00 in0.0 mm 0.00 in0.0 mm
06:05 AM 35.5°F1.9°C 28.0°F-2.2°C 74% 1.0 mph W1.6 kmh W 15.0 mph24.1 kmh 29.92 in1013.2 mb 0.00 in0.0 mm 0.00 in0.0 mm 0.00 in0.0 mm
06:00 AM 35.4°F1.9°C 27.9°F-2.3°C 74% 7.0 mph WSW11.3 kmh WSW 17.0 mph27.4 kmh 29.91 in1012.9 mb 0.00 in0.0 mm 0.00 in0.0 mm 0.00 in0.0 mm
05:55 AM 34.7°F1.5°C 27.9°F-2.3°C 76% 8.0 mph SW12.9 kmh SW 14.0 mph22.5 kmh 29.91 in1012.9 mb 0.00 in0.0 mm 0.00 in0.0 mm 0.00 in0.0 mm
05:50 AM 35.1°F1.7°C 27.6°F-2.4°C 74% 8.0 mph WSW12.9 kmh WSW 10.0 mph16.1 kmh 29.91 in1012.9 mb 0.00 in0.0 mm 0.00 in0.0 mm 0.00 in0.0 mm
05:45 AM 35.9°F2.2°C 27.7°F-2.4°C 72% 6.0 mph WSW9.7 kmh WSW 10.0 mph16.1 kmh 29.91 in1012.9 mb 0.00 in0.0 mm 0.00 in0.0 mm 0.00 in0.0 mm
05:40 AM 36.2°F2.3°C 27.7°F-2.4°C 71% 3.0 mph WSW4.8 kmh WSW 7.0 mph11.3 kmh 29.91 in1012.9 mb 0.00 in0.0 mm 0.00 in0.0 mm 0.00 in0.0 mm
05:35 AM 36.3°F2.4°C 27.4°F-2.6°C 70% 3.0 mph W4.8 kmh W 8.0 mph12.9 kmh 29.92 in1013.2 mb 0.00 in0.0 mm 0.00 in0.0 mm 0.00 in0.0 mm
05:30 AM 36.3°F2.4°C 27.4°F-2.6°C 70% 2.0 mph W3.2 kmh W 5.0 mph8.0 kmh 29.92 in1013.2 mb 0.00 in0.0 mm 0.00 in0.0 mm 0.00 in0.0 mm
05:25 AM 36.0°F2.2°C 27.5°F-2.5°C 71% 1.0 mph NW1.6 kmh NW 4.0 mph6.4 kmh 29.92 in1013.2 mb 0.00 in0.0 mm 0.00 in0.0 mm 0.00 in0.0 mm
05:20 AM 35.8°F2.1°C 27.6°F-2.4°C 72% 3.0 mph N4.8 kmh N 4.0 mph6.4 kmh 29.92 in1013.2 mb 0.00 in0.0 mm 0.00 in0.0 mm 0.00 in0.0 mm
05:15 AM 35.8°F2.1°C 27.6°F-2.4°C 72% 3.0 mph 4.8 kmh 3.0 mph4.8 kmh 29.92 in1013.2 mb 0.00 in0.0 mm 0.00 in0.0 mm 0.00 in0.0 mm
05:10 AM 35.7°F2.1°C 27.9°F-2.3°C 73% 1.0 mph WSW1.6 kmh WSW 2.0 mph3.2 kmh 29.92 in1013.2 mb 0.00 in0.0 mm 0.00 in0.0 mm 0.00 in0.0 mm
05:05 AM 35.8°F2.1°C 28.3°F-2.1°C 74% Calm Calm -- 29.92 in1013.2 mb 0.00 in0.0 mm 0.00 in0.0 mm 0.00 in0.0 mm
05:00 AM 35.8°F2.1°C 28.3°F-2.1°C 74% Calm Calm 3.0 mph4.8 kmh 29.92 in1013.2 mb 0.00 in0.0 mm 0.00 in0.0 mm 0.00 in0.0 mm
04:55 AM 35.9°F2.2°C 28.4°F-2.0°C 74% 2.0 mph WSW3.2 kmh WSW 2.0 mph3.2 kmh 29.91 in1012.9 mb 0.00 in0.0 mm 0.00 in0.0 mm 0.00 in0.0 mm
04:50 AM 36.1°F2.3°C 28.6°F-1.9°C 74% Calm Calm -- 29.91 in1012.9 mb 0.00 in0.0 mm 0.00 in0.0 mm 0.00 in0.0 mm
04:45 AM 36.3°F2.4°C 28.4°F-2.0°C 73% Calm Calm 1.0 mph1.6 kmh 29.91 in1012.9 mb 0.00 in0.0 mm 0.00 in0.0 mm 0.00 in0.0 mm
04:40 AM 36.5°F2.5°C 28.6°F-1.9°C 73% Calm Calm 2.0 mph3.2 kmh 29.91 in1012.9 mb 0.00 in0.0 mm 0.00 in0.0 mm 0.00 in0.0 mm
04:35 AM 36.6°F2.6°C 28.4°F-2.0°C 72% 1.0 mph WSW1.6 kmh WSW 3.0 mph4.8 kmh 29.92 in1013.2 mb 0.00 in0.0 mm 0.00 in0.0 mm 0.00 in0.0 mm
04:30 AM 36.6°F2.6°C 28.4°F-2.0°C 72% Calm Calm 2.0 mph3.2 kmh 29.92 in1013.2 mb 0.00 in0.0 mm 0.00 in0.0 mm 0.00 in0.0 mm
04:25 AM 36.6°F2.6°C 28.7°F-1.8°C 73% 1.0 mph WSW1.6 kmh WSW 2.0 mph3.2 kmh 29.92 in1013.2 mb 0.00 in0.0 mm 0.00 in0.0 mm 0.00 in0.0 mm
04:20 AM 36.7°F2.6°C 28.8°F-1.8°C 73% 2.0 mph WSW3.2 kmh WSW 3.0 mph4.8 kmh 29.92 in1013.2 mb 0.00 in0.0 mm 0.00 in0.0 mm 0.00 in0.0 mm
04:15 AM 36.7°F2.6°C 28.8°F-1.8°C 73% Calm Calm -- 29.92 in1013.2 mb 0.00 in0.0 mm 0.00 in0.0 mm 0.00 in0.0 mm
04:10 AM 36.8°F2.7°C 28.9°F-1.7°C 73% Calm Calm 4.0 mph6.4 kmh 29.91 in1012.9 mb 0.00 in0.0 mm 0.00 in0.0 mm 0.00 in0.0 mm
04:05 AM 36.8°F2.7°C 28.9°F-1.7°C 73% 4.0 mph WNW6.4 kmh WNW 5.0 mph8.0 kmh 29.92 in1013.2 mb 0.00 in0.0 mm 0.00 in0.0 mm 0.00 in0.0 mm
04:00 AM 36.8°F2.7°C 28.9°F-1.7°C 73% 2.0 mph NW3.2 kmh NW 8.0 mph12.9 kmh 29.92 in1013.2 mb 0.00 in0.0 mm 0.00 in0.0 mm 0.00 in0.0 mm
03:55 AM 36.9°F2.7°C 29.0°F-1.7°C 73% 2.0 mph NW3.2 kmh NW 5.0 mph8.0 kmh 29.92 in1013.2 mb 0.00 in0.0 mm 0.00 in0.0 mm 0.00 in0.0 mm
03:50 AM 37.0°F2.8°C 29.1°F-1.6°C 73% 3.0 mph NW4.8 kmh NW 9.0 mph14.5 kmh 29.92 in1013.2 mb 0.00 in0.0 mm 0.00 in0.0 mm 0.00 in0.0 mm
03:45 AM 37.1°F2.8°C 29.5°F-1.4°C 74% 4.0 mph WNW6.4 kmh WNW 8.0 mph12.9 kmh 29.93 in1013.5 mb 0.00 in0.0 mm 0.00 in0.0 mm 0.00 in0.0 mm
03:40 AM 37.4°F3.0°C 29.5°F-1.4°C 73% 6.0 mph NNW9.7 kmh NNW 10.0 mph16.1 kmh 29.93 in1013.5 mb 0.00 in0.0 mm 0.00 in0.0 mm 0.00 in0.0 mm
03:35 AM 37.5°F3.1°C 29.3°F-1.5°C 72% 5.0 mph NW8.0 kmh NW 8.0 mph12.9 kmh 29.92 in1013.2 mb 0.00 in0.0 mm 0.00 in0.0 mm 0.00 in0.0 mm
03:30 AM 37.7°F3.2°C 29.5°F-1.4°C 72% 3.0 mph WNW4.8 kmh WNW 6.0 mph9.7 kmh 29.93 in1013.5 mb 0.00 in0.0 mm 0.00 in0.0 mm 0.00 in0.0 mm
03:25 AM 37.7°F3.2°C 29.5°F-1.4°C 72% 3.0 mph WNW4.8 kmh WNW 6.0 mph9.7 kmh 29.92 in1013.2 mb 0.00 in0.0 mm 0.00 in0.0 mm 0.00 in0.0 mm
03:20 AM 37.8°F3.2°C 29.5°F-1.4°C 72% 5.0 mph NW8.0 kmh NW 9.0 mph14.5 kmh 29.92 in1013.2 mb 0.00 in0.0 mm 0.00 in0.0 mm 0.00 in0.0 mm
03:15 AM 37.9°F3.3°C 29.3°F-1.5°C 71% 3.0 mph N4.8 kmh N 4.0 mph6.4 kmh 29.92 in1013.2 mb 0.00 in0.0 mm 0.00 in0.0 mm 0.00 in0.0 mm
03:10 AM 38.1°F3.4°C 29.5°F-1.4°C 71% Calm Calm 6.0 mph9.7 kmh 29.92 in1013.2 mb 0.00 in0.0 mm 0.00 in0.0 mm 0.00 in0.0 mm
03:05 AM 38.2°F3.4°C 29.2°F-1.6°C 70% 2.0 mph WNW3.2 kmh WNW 10.0 mph16.1 kmh 29.92 in1013.2 mb 0.00 in0.0 mm 0.00 in0.0 mm 0.00 in0.0 mm
03:00 AM 38.1°F3.4°C 29.1°F-1.6°C 70% 3.0 mph NW4.8 kmh NW 19.0 mph30.6 kmh 29.92 in1013.2 mb 0.00 in0.0 mm 0.00 in0.0 mm 0.00 in0.0 mm
02:55 AM 37.3°F2.9°C 29.4°F-1.4°C 73% 4.0 mph WNW6.4 kmh WNW 12.0 mph19.3 kmh 29.92 in1013.2 mb 0.00 in0.0 mm 0.00 in0.0 mm 0.00 in0.0 mm
02:50 AM 36.7°F2.6°C 29.5°F-1.4°C 75% 1.0 mph WNW1.6 kmh WNW 9.0 mph14.5 kmh 29.92 in1013.2 mb 0.00 in0.0 mm 0.00 in0.0 mm 0.00 in0.0 mm
02:45 AM 36.0°F2.2°C 29.5°F-1.4°C 77% Calm Calm 7.0 mph11.3 kmh 29.92 in1013.2 mb 0.00 in0.0 mm 0.00 in0.0 mm 0.00 in0.0 mm
02:40 AM 36.1°F2.3°C 29.9°F-1.2°C 78% 1.0 mph S1.6 kmh S 2.0 mph3.2 kmh 29.92 in1013.2 mb 0.00 in0.0 mm 0.00 in0.0 mm 0.00 in0.0 mm
02:35 AM 36.2°F2.3°C 30.0°F-1.1°C 78% 1.0 mph S1.6 kmh S 3.0 mph4.8 kmh 29.92 in1013.2 mb 0.00 in0.0 mm 0.00 in0.0 mm 0.00 in0.0 mm
02:30 AM 36.4°F2.4°C 30.2°F-1.0°C 78% Calm Calm 3.0 mph4.8 kmh 29.91 in1012.9 mb 0.00 in0.0 mm 0.00 in0.0 mm 0.00 in0.0 mm
02:25 AM 36.5°F2.5°C 29.9°F-1.2°C 77% Calm Calm 3.0 mph4.8 kmh 29.91 in1012.9 mb 0.00 in0.0 mm 0.00 in0.0 mm 0.00 in0.0 mm
02:20 AM 36.7°F2.6°C 30.1°F-1.1°C 77% Calm Calm 6.0 mph9.7 kmh 29.91 in1012.9 mb 0.00 in0.0 mm 0.00 in0.0 mm 0.00 in0.0 mm
02:15 AM 36.9°F2.7°C 30.0°F-1.1°C 76% Calm Calm 8.0 mph12.9 kmh 29.90 in1012.5 mb 0.00 in0.0 mm 0.00 in0.0 mm 0.00 in0.0 mm
02:10 AM 37.2°F2.9°C 30.0°F-1.1°C 75% 4.0 mph SW6.4 kmh SW 11.0 mph17.7 kmh 29.90 in1012.5 mb 0.00 in0.0 mm 0.00 in0.0 mm 0.00 in0.0 mm
02:05 AM 37.4°F3.0°C 29.8°F-1.2°C 74% 3.0 mph WSW4.8 kmh WSW 14.0 mph22.5 kmh 29.90 in1012.5 mb 0.00 in0.0 mm 0.00 in0.0 mm 0.00 in0.0 mm
02:00 AM 37.8°F3.2°C 29.9°F-1.2°C 73% 4.0 mph WSW6.4 kmh WSW 14.0 mph22.5 kmh 29.89 in1012.2 mb 0.00 in0.0 mm 0.00 in0.0 mm 0.00 in0.0 mm
01:55 AM 38.0°F3.3°C 29.4°F-1.4°C 71% 10.0 mph WSW16.1 kmh WSW 13.0 mph20.9 kmh 29.90 in1012.5 mb 0.00 in0.0 mm 0.00 in0.0 mm 0.00 in0.0 mm
01:50 AM 38.0°F3.3°C 29.7°F-1.3°C 72% 2.0 mph WNW3.2 kmh WNW 12.0 mph19.3 kmh 29.90 in1012.5 mb 0.00 in0.0 mm 0.00 in0.0 mm 0.00 in0.0 mm
01:45 AM 38.0°F3.3°C 29.7°F-1.3°C 72% 2.0 mph NW3.2 kmh NW 11.0 mph17.7 kmh 29.90 in1012.5 mb 0.00 in0.0 mm 0.00 in0.0 mm 0.00 in0.0 mm
01:40 AM 38.1°F3.4°C 29.8°F-1.2°C 72% 5.0 mph SW8.0 kmh SW 11.0 mph17.7 kmh 29.90 in1012.5 mb 0.00 in0.0 mm 0.00 in0.0 mm 0.00 in0.0 mm
01:35 AM 38.3°F3.5°C 29.7°F-1.3°C 71% 8.0 mph NW12.9 kmh NW 14.0 mph22.5 kmh 29.90 in1012.5 mb 0.00 in0.0 mm 0.00 in0.0 mm 0.00 in0.0 mm
01:30 AM 38.3°F3.5°C 29.7°F-1.3°C 71% 7.0 mph WNW11.3 kmh WNW 13.0 mph20.9 kmh 29.89 in1012.2 mb 0.00 in0.0 mm 0.00 in0.0 mm 0.00 in0.0 mm
01:25 AM 38.4°F3.6°C 29.8°F-1.2°C 71% 10.0 mph WSW16.1 kmh WSW 15.0 mph24.1 kmh 29.89 in1012.2 mb 0.00 in0.0 mm 0.00 in0.0 mm 0.00 in0.0 mm
01:20 AM 38.3°F3.5°C 29.7°F-1.3°C 71% 9.0 mph W14.5 kmh W 14.0 mph22.5 kmh 29.90 in1012.5 mb 0.00 in0.0 mm 0.00 in0.0 mm 0.00 in0.0 mm
01:15 AM 38.3°F3.5°C 30.0°F-1.1°C 72% 7.0 mph WSW11.3 kmh WSW 12.0 mph19.3 kmh 29.90 in1012.5 mb 0.00 in0.0 mm 0.00 in0.0 mm 0.00 in0.0 mm
01:10 AM 38.3°F3.5°C 30.4°F-0.9°C 73% 7.0 mph W11.3 kmh W 12.0 mph19.3 kmh 29.91 in1012.9 mb 0.00 in0.0 mm 0.00 in0.0 mm 0.00 in0.0 mm
01:05 AM 38.2°F3.4°C 30.3°F-0.9°C 73% 2.0 mph WSW3.2 kmh WSW 8.0 mph12.9 kmh 29.90 in1012.5 mb 0.00 in0.0 mm 0.00 in0.0 mm 0.00 in0.0 mm
01:00 AM 38.3°F3.5°C 30.4°F-0.9°C 73% 7.0 mph W11.3 kmh W 9.0 mph14.5 kmh 29.91 in1012.9 mb 0.00 in0.0 mm 0.00 in0.0 mm 0.00 in0.0 mm
12:55 AM 38.3°F3.5°C 30.4°F-0.9°C 73% 4.0 mph W6.4 kmh W 7.0 mph11.3 kmh 29.91 in1012.9 mb 0.00 in0.0 mm 0.00 in0.0 mm 0.00 in0.0 mm
12:50 AM 38.3°F3.5°C 30.4°F-0.9°C 73% 6.0 mph W9.7 kmh W 9.0 mph14.5 kmh 29.91 in1012.9 mb 0.00 in0.0 mm 0.00 in0.0 mm 0.00 in0.0 mm
12:45 AM 38.3°F3.5°C 30.4°F-0.9°C 73% 7.0 mph NW11.3 kmh NW 8.0 mph12.9 kmh 29.92 in1013.2 mb 0.00 in0.0 mm 0.00 in0.0 mm 0.00 in0.0 mm
12:40 AM 38.2°F3.4°C 30.3°F-0.9°C 73% 1.0 mph W1.6 kmh W 9.0 mph14.5 kmh 29.92 in1013.2 mb 0.00 in0.0 mm 0.00 in0.0 mm 0.00 in0.0 mm
12:35 AM 38.0°F3.3°C 30.1°F-1.1°C 73% 2.0 mph WNW3.2 kmh WNW 9.0 mph14.5 kmh 29.92 in1013.2 mb 0.00 in0.0 mm 0.00 in0.0 mm 0.00 in0.0 mm
12:30 AM 37.9°F3.3°C 30.0°F-1.1°C 73% 4.0 mph W6.4 kmh W 9.0 mph14.5 kmh 29.93 in1013.5 mb 0.00 in0.0 mm 0.00 in0.0 mm 0.00 in0.0 mm
12:25 AM 37.9°F3.3°C 30.0°F-1.1°C 73% 2.0 mph W3.2 kmh W 8.0 mph12.9 kmh 29.93 in1013.5 mb 0.00 in0.0 mm 0.00 in0.0 mm 0.00 in0.0 mm
12:20 AM 38.0°F3.3°C 29.7°F-1.3°C 72% 4.0 mph WSW6.4 kmh WSW 5.0 mph8.0 kmh 29.93 in1013.5 mb 0.00 in0.0 mm 0.00 in0.0 mm 0.00 in0.0 mm
12:15 AM 38.4°F3.6°C 29.8°F-1.2°C 71% 2.0 mph WSW3.2 kmh WSW 4.0 mph6.4 kmh 29.93 in1013.5 mb 0.00 in0.0 mm 0.00 in0.0 mm 0.00 in0.0 mm
12:10 AM 38.7°F3.7°C 29.7°F-1.3°C 70% 2.0 mph WSW3.2 kmh WSW 5.0 mph8.0 kmh 29.92 in1013.2 mb 0.00 in0.0 mm 0.00 in0.0 mm 0.00 in0.0 mm
12:05 AM 38.9°F3.8°C 29.9°F-1.2°C 70% 1.0 mph WSW1.6 kmh WSW 4.0 mph6.4 kmh 29.93 in1013.5 mb 0.00 in0.0 mm 0.00 in0.0 mm 0.00 in0.0 mm
12:00 AM 39.1°F3.9°C 29.8°F-1.2°C 69% 2.0 mph W3.2 kmh W 8.0 mph12.9 kmh 29.93 in1013.5 mb 0.00 in0.0 mm 0.00 in0.0 mm 0.00 in0.0 mm